Time;durP1;ratioP1;P1;durP2;ratioP2;P2;SDS_P1;SDS_P2;PMS_P1;PMS_P2;Temp;Humidity;BMP_temperature;BMP_pressure;BME280_temperature;BME280_humidity;BME280_pressure;Samples;Min_cycle;Max_cycle;Signal;HPM_P1;HPM_P2
2021/11/27 00:01:01;;;;;;;18.17;12.05;;;4.70;99.90;;;;;;5028778;28;20076;-51
2021/11/27 00:03:27;;;;;;;18.80;11.82;;;4.70;99.90;;;;;;5027624;28;20088;-47
2021/11/27 00:05:55;;;;;;;20.15;12.35;;;4.70;99.90;;;;;;5011030;28;20092;-48
2021/11/27 00:08:21;;;;;;;22.08;13.05;;;4.70;99.90;;;;;;5006755;28;20033;-47
2021/11/27 00:10:51;;;;;;;19.40;12.95;;;4.70;99.90;;;;;;5029781;28;20045;-49
2021/11/27 00:13:18;;;;;;;21.27;13.27;;;4.70;99.90;;;;;;5026766;28;20072;-48
2021/11/27 00:15:45;;;;;;;20.88;12.82;;;4.70;99.90;;;;;;5029619;28;20033;-49
2021/11/27 00:18:12;;;;;;;21.25;13.32;;;4.70;99.90;;;;;;5031709;28;20124;-49
2021/11/27 00:20:44;;;;;;;22.75;13.90;;;4.70;99.90;;;;;;5026055;28;20048;-49
2021/11/27 00:23:10;;;;;;;23.45;14.35;;;4.70;99.90;;;;;;5024340;28;20033;-52
2021/11/27 00:25:37;;;;;;;23.35;13.88;;;4.70;99.90;;;;;;5027872;28;20461;-50
2021/11/27 00:28:03;;;;;;;21.77;13.98;;;4.70;99.90;;;;;;5022140;28;20045;-49
2021/11/27 00:30:32;;;;;;;24.73;14.88;;;4.90;99.90;;;;;;5021896;28;20405;-49
2021/11/27 00:32:59;;;;;;;24.42;14.25;;;4.70;99.90;;;;;;5006379;28;20040;-48
2021/11/27 00:35:25;;;;;;;23.63;13.98;;;4.70;99.90;;;;;;5023536;28;20034;-49
2021/11/27 00:37:53;;;;;;;22.42;14.00;;;4.70;99.90;;;;;;5030734;28;20092;-49
2021/11/27 00:40:19;;;;;;;23.52;14.38;;;4.80;99.90;;;;;;5025423;28;20401;-50
2021/11/27 00:42:45;;;;;;;23.77;14.50;;;4.80;99.90;;;;;;5023421;28;20037;-48
2021/11/27 00:45:13;;;;;;;24.50;14.50;;;4.80;99.90;;;;;;5028412;28;20053;-49
2021/11/27 00:47:41;;;;;;;25.42;15.65;;;4.80;99.90;;;;;;5028825;28;20494;-51
2021/11/27 00:50:08;;;;;;;24.35;15.00;;;4.80;99.90;;;;;;5020407;28;20473;-49
2021/11/27 00:52:34;;;;;;;25.45;15.13;;;4.70;99.90;;;;;;5000972;28;20042;-49
2021/11/27 00:55:01;;;;;;;26.83;15.68;;;4.80;99.90;;;;;;5014419;28;20508;-49
2021/11/27 00:57:26;;;;;;;25.40;14.93;;;4.80;99.90;;;;;;4996266;28;20076;-48
2021/11/27 00:59:52;;;;;;;23.60;14.60;;;4.70;99.90;;;;;;5025530;28;20069;-49
2021/11/27 01:02:18;;;;;;;26.83;15.82;;;4.80;99.90;;;;;;5022079;28;20124;-51
2021/11/27 01:04:44;;;;;;;25.70;15.27;;;4.70;99.90;;;;;;5024405;28;20068;-52
2021/11/27 01:07:10;;;;;;;24.85;15.55;;;4.70;99.90;;;;;;5023704;28;20033;-53
2021/11/27 01:09:36;;;;;;;26.75;16.17;;;4.70;99.90;;;;;;5025940;28;20073;-52
2021/11/27 01:12:03;;;;;;;25.50;15.45;;;4.70;99.90;;;;;;5022802;28;20493;-50
2021/11/27 01:14:29;;;;;;;27.77;16.13;;;4.70;99.90;;;;;;5022727;28;20029;-52
2021/11/27 01:17:02;;;;;;;26.30;16.23;;;4.70;99.90;;;;;;5022575;28;20071;-52
2021/11/27 01:19:29;;;;;;;27.02;16.27;;;4.70;99.90;;;;;;5016722;28;20386;-50
2021/11/27 01:22:01;;;;;;;25.92;16.42;;;4.70;99.90;;;;;;5000800;28;20497;-51
2021/11/27 01:24:26;;;;;;;27.17;16.60;;;4.70;99.90;;;;;;5031493;28;20565;-52
2021/11/27 01:26:54;;;;;;;28.27;16.90;;;4.70;99.90;;;;;;5028958;28;20380;-51
2021/11/27 01:29:23;;;;;;;26.17;16.50;;;4.70;99.90;;;;;;5006687;28;20108;-49
2021/11/27 01:31:49;;;;;;;27.55;16.58;;;4.70;99.90;;;;;;4999132;28;20037;-51
2021/11/27 01:34:15;;;;;;;26.58;16.42;;;4.70;99.90;;;;;;5027460;28;20110;-52
2021/11/27 01:36:43;;;;;;;25.60;16.02;;;4.70;99.90;;;;;;4988072;28;20077;-49
2021/11/27 01:39:09;;;;;;;27.90;16.77;;;4.70;99.90;;;;;;5013105;28;20037;-50
2021/11/27 01:41:36;;;;;;;27.00;16.65;;;4.70;99.90;;;;;;5027870;28;20394;-49
2021/11/27 01:44:03;;;;;;;27.58;16.55;;;4.70;99.90;;;;;;5013373;28;20037;-50
2021/11/27 01:46:30;;;;;;;25.27;16.30;;;4.80;99.90;;;;;;5030858;28;20042;-52
2021/11/27 01:48:56;;;;;;;27.08;15.73;;;4.80;99.90;;;;;;5029184;28;20037;-49
2021/11/27 01:51:24;;;;;;;25.20;15.77;;;4.70;99.90;;;;;;4987001;28;20121;-53
2021/11/27 01:53:57;;;;;;;24.33;15.55;;;4.70;99.90;;;;;;5024199;28;20041;-51
2021/11/27 01:56:30;;;;;;;25.10;16.20;;;4.70;99.90;;;;;;5018472;28;20144;-49
2021/11/27 01:58:56;;;;;;;26.88;16.38;;;4.70;99.90;;;;;;5026327;28;20120;-48
2021/11/27 02:01:26;;;;;;;25.05;15.95;;;4.70;99.90;;;;;;5029022;28;20037;-51
2021/11/27 02:03:52;;;;;;;28.30;17.40;;;4.70;99.90;;;;;;4982911;28;20100;-50
2021/11/27 02:06:20;;;;;;;28.08;16.63;;;4.70;99.90;;;;;;5026215;28;20108;-52
2021/11/27 02:08:49;;;;;;;25.50;17.02;;;4.70;99.90;;;;;;5021084;28;20233;-50
2021/11/27 02:11:17;;;;;;;25.92;16.55;;;4.70;99.90;;;;;;5017733;28;20037;-48
2021/11/27 02:13:42;;;;;;;29.08;17.40;;;4.70;99.90;;;;;;5017896;28;20038;-50
2021/11/27 02:16:08;;;;;;;26.42;16.63;;;4.70;99.90;;;;;;5021547;28;20044;-49
2021/11/27 02:18:34;;;;;;;29.23;17.23;;;4.70;99.90;;;;;;5025714;28;20041;-49
2021/11/27 02:21:09;;;;;;;27.38;17.60;;;4.70;99.90;;;;;;5024815;28;20374;-51
2021/11/27 02:23:35;;;;;;;26.90;17.33;;;4.30;99.90;;;;;;5025244;28;20046;-52
2021/11/27 02:26:05;;;;;;;33.50;19.50;;;4.70;99.90;;;;;;5013934;28;20064;-50
2021/11/27 02:28:33;;;;;;;29.10;18.08;;;4.70;99.90;;;;;;4992529;28;20069;-50
2021/11/27 02:30:59;;;;;;;30.52;18.70;;;4.70;99.90;;;;;;5027727;28;20401;-48
2021/11/27 02:33:26;;;;;;;29.38;18.23;;;4.70;99.90;;;;;;5025450;28;20046;-49
2021/11/27 02:35:52;;;;;;;28.98;18.10;;;4.70;99.90;;;;;;5026039;28;20117;-48
2021/11/27 02:38:17;;;;;;;31.67;18.98;;;4.70;99.90;;;;;;5025173;28;20155;-50
2021/11/27 02:40:44;;;;;;;31.38;18.48;;;4.70;99.90;;;;;;4972345;28;20045;-49
2021/11/27 02:43:10;;;;;;;30.98;18.80;;;4.70;99.90;;;;;;5031683;28;20040;-52
2021/11/27 02:45:36;;;;;;;31.25;19.25;;;4.70;99.90;;;;;;5031099;28;20038;-49
2021/11/27 02:48:03;;;;;;;30.40;18.83;;;4.70;99.90;;;;;;5007734;28;20036;-49
2021/11/27 02:50:28;;;;;;;32.22;19.13;;;4.70;99.90;;;;;;5011165;28;20048;-52
2021/11/27 02:52:54;;;;;;;33.13;19.42;;;4.70;99.90;;;;;;5030844;28;20110;-50
2021/11/27 02:55:19;;;;;;;32.35;18.77;;;4.70;99.90;;;;;;5010467;28;20072;-51
2021/11/27 02:57:45;;;;;;;34.05;19.45;;;4.70;99.90;;;;;;5030077;28;20041;-51
2021/11/27 03:00:17;;;;;;;33.80;19.00;;;4.70;99.90;;;;;;5029973;28;20050;-49
2021/11/27 03:02:43;;;;;;;;;;;4.70;99.90;;;;;;5032011;28;20041;-50
2021/11/27 03:05:09;;;;;;;32.13;18.77;;;4.60;99.90;;;;;;5025235;28;19922;-48
2021/11/27 03:07:36;;;;;;;35.28;20.33;;;4.60;99.90;;;;;;5026504;28;20041;-48
2021/11/27 03:10:04;;;;;;;31.80;19.10;;;4.70;99.90;;;;;;5013884;28;20034;-49
2021/11/27 03:12:29;;;;;;;33.25;19.52;;;4.70;99.90;;;;;;5023695;28;20416;-49
2021/11/27 03:14:55;;;;;;;33.78;20.65;;;4.70;99.90;;;;;;5022707;28;20052;-49
2021/11/27 03:17:21;;;;;;;33.53;19.83;;;4.70;99.90;;;;;;5026727;28;20040;-49
2021/11/27 03:19:47;;;;;;;33.65;20.20;;;4.70;99.90;;;;;;5028833;28;20531;-50
2021/11/27 03:22:15;;;;;;;32.10;19.58;;;4.70;99.90;;;;;;5016286;28;20088;-50
2021/11/27 03:24:41;;;;;;;31.45;19.50;;;4.70;99.90;;;;;;5030272;28;20045;-49
2021/11/27 03:27:07;;;;;;;32.47;20.75;;;4.70;99.90;;;;;;5032532;28;20382;-49
2021/11/27 03:29:34;;;;;;;33.30;20.27;;;4.80;99.90;;;;;;5025630;28;20454;-50
2021/11/27 03:32:03;;;;;;;31.98;19.73;;;4.70;99.90;;;;;;5026702;28;20037;-49
2021/11/27 03:34:29;;;;;;;35.10;20.60;;;4.70;99.90;;;;;;5024582;28;20074;-50
2021/11/27 03:36:55;;;;;;;35.47;20.23;;;4.70;99.90;;;;;;5031446;28;20504;-49
2021/11/27 03:39:21;;;;;;;33.75;20.55;;;4.70;99.90;;;;;;5032219;28;20037;-49
2021/11/27 03:41:47;;;;;;;33.88;20.50;;;4.80;99.90;;;;;;5032730;28;20041;-50
2021/11/27 03:44:12;;;;;;;31.45;19.23;;;4.80;99.90;;;;;;5033480;28;20038;-49
2021/11/27 03:46:38;;;;;;;31.85;19.60;;;4.80;99.90;;;;;;5017529;28;20457;-50
2021/11/27 03:49:05;;;;;;;32.70;19.30;;;4.80;99.90;;;;;;5026044;28;20087;-49
2021/11/27 03:51:30;;;;;;;33.53;20.55;;;4.80;99.90;;;;;;5007501;28;20080;-49
2021/11/27 03:53:57;;;;;;;33.92;20.17;;;4.80;99.90;;;;;;5027564;28;20088;-49
2021/11/27 03:56:29;;;;;;;31.45;20.08;;;4.80;99.90;;;;;;5015212;28;20037;-49
2021/11/27 03:58:57;;;;;;;34.03;19.83;;;4.80;99.90;;;;;;4995879;28;20570;-49
2021/11/27 04:01:25;;;;;;;33.28;19.70;;;4.80;99.90;;;;;;5009744;28;20031;-49
2021/11/27 04:03:52;;;;;;;31.50;19.50;;;4.80;99.90;;;;;;5032123;28;20080;-49
2021/11/27 04:06:18;;;;;;;34.70;18.55;;;4.90;99.90;;;;;;5023428;28;20493;-49
2021/11/27 04:08:45;;;;;;;33.03;19.50;;;4.80;99.90;;;;;;5024759;28;20049;-49
2021/11/27 04:11:11;;;;;;;31.08;18.63;;;4.90;99.90;;;;;;5031816;28;20038;-49
2021/11/27 04:13:38;;;;;;;32.83;19.30;;;4.90;99.90;;;;;;5031173;28;20045;-49
2021/11/27 04:16:04;;;;;;;32.45;18.80;;;4.80;99.90;;;;;;5012755;28;20095;-49
2021/11/27 04:18:30;;;;;;;32.72;18.88;;;4.90;99.90;;;;;;5024289;28;20452;-52
2021/11/27 04:20:56;;;;;;;35.75;19.73;;;4.90;99.90;;;;;;5020617;28;20088;-49
2021/11/27 04:23:23;;;;;;;28.55;18.45;;;4.90;99.90;;;;;;5027497;28;20037;-50
2021/11/27 04:25:50;;;;;;;29.20;18.02;;;4.90;99.90;;;;;;5017160;28;20040;-49
2021/11/27 04:28:15;;;;;;;30.92;18.65;;;4.90;99.90;;;;;;5023689;28;20033;-49
2021/11/27 04:30:42;;;;;;;28.50;17.55;;;4.90;99.90;;;;;;5018126;28;20481;-50
2021/11/27 04:33:08;;;;;;;30.60;18.25;;;5.00;99.90;;;;;;5027260;28;20521;-50
2021/11/27 04:35:34;;;;;;;28.75;17.10;;;5.00;99.90;;;;;;5025433;28;20042;-50
2021/11/27 04:38:00;;;;;;;31.27;18.02;;;5.00;99.90;;;;;;5023800;28;20538;-49
2021/11/27 04:40:27;;;;;;;28.73;17.60;;;5.00;99.90;;;;;;4983114;28;20077;-50
2021/11/27 04:42:53;;;;;;;32.03;17.75;;;5.00;99.90;;;;;;5028916;28;20073;-49
2021/11/27 04:45:20;;;;;;;27.98;16.88;;;5.00;99.90;;;;;;5006685;28;20487;-52
2021/11/27 04:47:46;;;;;;;28.33;17.40;;;5.00;99.90;;;;;;5024815;28;20128;-50
2021/11/27 04:50:13;;;;;;;31.17;18.60;;;5.00;99.90;;;;;;5030387;28;20112;-49
2021/11/27 04:52:39;;;;;;;29.02;17.20;;;4.90;99.90;;;;;;5031487;28;20076;-50
2021/11/27 04:55:07;;;;;;;27.15;17.08;;;4.90;99.90;;;;;;5029480;28;20041;-50
2021/11/27 04:57:34;;;;;;;29.77;17.23;;;4.90;99.90;;;;;;5031524;28;20044;-49
2021/11/27 05:00:00;;;;;;;26.10;15.85;;;4.90;99.90;;;;;;5028661;28;20445;-49
2021/11/27 05:02:25;;;;;;;28.02;16.90;;;4.90;99.90;;;;;;5013601;28;20037;-49
2021/11/27 05:04:51;;;;;;;27.30;16.73;;;4.90;99.90;;;;;;5031496;28;20505;-49
2021/11/27 05:07:18;;;;;;;28.90;16.20;;;4.90;99.90;;;;;;5012141;28;20087;-50
2021/11/27 05:09:44;;;;;;;28.85;16.65;;;4.90;99.90;;;;;;4995972;28;20053;-49
2021/11/27 05:12:10;;;;;;;28.10;15.48;;;4.90;99.90;;;;;;5005880;28;20049;-49
2021/11/27 05:14:36;;;;;;;29.65;15.88;;;5.00;99.90;;;;;;5022395;28;20385;-49
2021/11/27 05:17:02;;;;;;;28.25;16.30;;;4.90;99.90;;;;;;4989023;28;20045;-50
2021/11/27 05:19:29;;;;;;;27.05;15.98;;;5.00;99.90;;;;;;5013779;28;20041;-49
2021/11/27 05:21:55;;;;;;;30.88;17.05;;;5.00;99.90;;;;;;5028046;28;20469;-52
2021/11/27 05:24:21;;;;;;;30.00;16.65;;;5.00;99.90;;;;;;5029739;28;20037;-49
2021/11/27 05:26:47;;;;;;;29.38;16.33;;;5.00;99.90;;;;;;4997423;28;20045;-50
2021/11/27 05:29:13;;;;;;;29.48;16.45;;;5.00;99.90;;;;;;4994966;28;20033;-49
2021/11/27 05:31:39;;;;;;;27.17;15.93;;;5.00;99.90;;;;;;4981072;28;20037;-49
2021/11/27 05:36:38;;;;;;;34.60;18.10;;;5.00;99.90;;;;;;5020288;28;20516;-52
2021/11/27 05:39:05;;;;;;;31.48;16.75;;;5.00;99.90;;;;;;5019973;28;20037;-49
2021/11/27 05:41:30;;;;;;;29.90;16.60;;;5.00;99.90;;;;;;5030324;28;20033;-50
2021/11/27 05:43:57;;;;;;;31.15;17.27;;;5.00;99.90;;;;;;5023558;28;20095;-50
2021/11/27 05:46:23;;;;;;;30.77;16.27;;;5.00;99.90;;;;;;5028789;28;20043;-49
2021/11/27 05:48:49;;;;;;;28.70;15.52;;;5.00;99.90;;;;;;5021929;28;20041;-49
2021/11/27 05:51:14;;;;;;;34.28;16.63;;;5.00;99.90;;;;;;5025699;28;20034;-49
2021/11/27 05:53:42;;;;;;;26.83;15.50;;;5.10;99.90;;;;;;5025970;28;20116;-49
2021/11/27 05:56:07;;;;;;;31.52;15.45;;;5.00;99.90;;;;;;5023849;28;20046;-49
2021/11/27 05:58:33;;;;;;;26.50;14.45;;;5.00;99.90;;;;;;5021782;28;20045;-49
2021/11/27 06:01:03;;;;;;;26.60;14.23;;;5.00;99.90;;;;;;5023649;28;20498;-49
2021/11/27 06:03:29;;;;;;;25.17;13.70;;;5.10;99.90;;;;;;5020089;28;20516;-49
2021/11/27 06:05:55;;;;;;;27.98;14.68;;;5.00;99.90;;;;;;5030490;28;20578;-49
2021/11/27 06:08:21;;;;;;;23.80;13.52;;;5.10;99.90;;;;;;5029823;28;20478;-50
2021/11/27 06:10:46;;;;;;;25.35;13.75;;;5.10;99.90;;;;;;5023027;28;20032;-49
2021/11/27 06:13:12;;;;;;;20.80;12.00;;;5.10;99.90;;;;;;5024116;28;20038;-49
2021/11/27 06:15:38;;;;;;;24.25;12.38;;;5.10;99.90;;;;;;5028433;28;20112;-49
2021/11/27 06:18:03;;;;;;;24.42;11.20;;;5.10;99.90;;;;;;5030566;28;20069;-50
2021/11/27 06:20:30;;;;;;;24.77;11.93;;;5.10;99.90;;;;;;5023331;28;20073;-49
2021/11/27 06:22:56;;;;;;;23.55;11.95;;;5.10;99.90;;;;;;4980426;28;20033;-49
2021/11/27 06:25:24;;;;;;;19.65;11.20;;;5.10;99.90;;;;;;5027428;28;20037;-49
2021/11/27 06:27:50;;;;;;;25.05;11.57;;;5.20;99.90;;;;;;5030156;28;20903;-49
2021/11/27 06:30:16;;;;;;;20.88;10.80;;;5.20;99.90;;;;;;5021111;28;20034;-49
2021/11/27 06:32:42;;;;;;;21.60;10.32;;;5.10;99.90;;;;;;5014776;28;20497;-50
2021/11/27 06:35:08;;;;;;;24.40;9.88;;;5.10;99.90;;;;;;5033981;28;20041;-49
2021/11/27 06:37:33;;;;;;;19.52;9.35;;;5.10;99.90;;;;;;5034973;28;20041;-49
2021/11/27 06:39:59;;;;;;;22.38;9.95;;;5.10;99.90;;;;;;5013393;28;20037;-49
2021/11/27 06:42:27;;;;;;;20.17;8.95;;;5.10;99.90;;;;;;5030726;28;20041;-49
2021/11/27 06:44:52;;;;;;;18.00;8.95;;;5.10;99.90;;;;;;5029567;28;20064;-50
2021/11/27 06:47:21;;;;;;;16.88;8.68;;;5.20;99.90;;;;;;5033174;28;20025;-50
2021/11/27 06:49:48;;;;;;;18.02;8.40;;;5.10;99.90;;;;;;5030199;28;20033;-49
2021/11/27 06:52:14;;;;;;;14.27;8.25;;;5.00;99.90;;;;;;5026750;28;20048;-49
2021/11/27 06:54:41;;;;;;;17.10;8.38;;;5.00;99.90;;;;;;5033278;28;20037;-50
2021/11/27 06:57:08;;;;;;;17.52;8.50;;;5.00;99.90;;;;;;5033108;28;20057;-49
2021/11/27 06:59:35;;;;;;;16.02;8.88;;;5.00;99.90;;;;;;5033976;28;20048;-50
2021/11/27 07:02:01;;;;;;;19.25;9.05;;;5.10;99.90;;;;;;4997262;28;20175;-50
2021/11/27 07:04:27;;;;;;;18.85;8.63;;;5.10;99.90;;;;;;5034566;28;20082;-49
2021/11/27 07:06:52;;;;;;;16.38;8.57;;;5.00;99.90;;;;;;5024272;28;20038;-49
2021/11/27 07:09:18;;;;;;;14.50;7.75;;;5.00;99.90;;;;;;5024291;28;20502;-49
2021/11/27 07:11:44;;;;;;;18.30;8.57;;;5.00;99.90;;;;;;5023821;28;20030;-49
2021/11/27 07:14:11;;;;;;;19.17;8.20;;;5.10;99.90;;;;;;4990870;28;20124;-52
2021/11/27 07:16:36;;;;;;;14.38;7.53;;;5.00;99.90;;;;;;5021220;28;20092;-49
2021/11/27 07:19:03;;;;;;;12.18;6.90;;;5.00;99.90;;;;;;5030092;28;20501;-49
2021/11/27 07:21:29;;;;;;;14.05;6.55;;;5.00;99.90;;;;;;5030820;28;20073;-49
2021/11/27 07:23:54;;;;;;;12.52;7.00;;;5.00;99.90;;;;;;5021714;28;20076;-49
2021/11/27 07:26:20;;;;;;;12.30;7.10;;;5.00;99.90;;;;;;5019684;28;20030;-49
2021/11/27 07:28:47;;;;;;;13.15;6.90;;;5.00;99.90;;;;;;5031715;28;20048;-50
2021/11/27 07:31:14;;;;;;;15.07;6.60;;;5.00;99.90;;;;;;5023427;28;20218;-49
2021/11/27 07:33:39;;;;;;;14.68;6.57;;;5.10;99.90;;;;;;5031244;28;20116;-50
2021/11/27 07:36:05;;;;;;;11.48;6.25;;;5.00;99.90;;;;;;5014547;28;20038;-49
2021/11/27 07:38:32;;;;;;;16.63;6.70;;;5.10;99.90;;;;;;5028477;28;20493;-49
2021/11/27 07:40:57;;;;;;;11.90;6.68;;;5.10;99.90;;;;;;5023913;28;20089;-50
2021/11/27 07:43:23;;;;;;;12.02;5.75;;;5.00;99.90;;;;;;5023382;28;20531;-50
2021/11/27 07:45:49;;;;;;;13.48;6.15;;;5.00;99.90;;;;;;5028511;28;20041;-50
2021/11/27 07:48:15;;;;;;;12.93;7.22;;;5.10;99.90;;;;;;5023413;28;20128;-49
2021/11/27 07:50:40;;;;;;;11.77;5.18;;;5.10;99.90;;;;;;5026621;28;20052;-50
2021/11/27 07:53:06;;;;;;;12.80;5.45;;;5.10;99.90;;;;;;5015605;28;20091;-49
2021/11/27 07:55:32;;;;;;;10.30;4.80;;;5.10;99.90;;;;;;5026614;28;20144;-51
2021/11/27 07:57:57;;;;;;;10.43;5.15;;;5.10;99.90;;;;;;5016763;28;20120;-50
2021/11/27 08:00:24;;;;;;;10.98;5.45;;;5.10;99.90;;;;;;5011087;28;20132;-50
2021/11/27 08:02:49;;;;;;;10.85;5.18;;;5.10;99.90;;;;;;5031474;28;20033;-50
2021/11/27 08:05:16;;;;;;;9.50;5.25;;;5.00;99.90;;;;;;4996423;28;20516;-52
2021/11/27 08:07:42;;;;;;;8.65;4.65;;;5.00;99.90;;;;;;4972914;28;20030;-53
2021/11/27 08:10:10;;;;;;;9.45;4.65;;;5.00;99.90;;;;;;4974953;28;20463;-51
2021/11/27 08:12:36;;;;;;;8.60;4.18;;;5.00;99.90;;;;;;5027697;28;20053;-50
2021/11/27 08:15:03;;;;;;;7.25;3.10;;;5.00;99.90;;;;;;5014819;28;20029;-53
2021/11/27 08:17:29;;;;;;;8.05;3.38;;;5.10;99.90;;;;;;5030723;28;20409;-49
2021/11/27 08:19:54;;;;;;;6.15;3.00;;;5.10;99.90;;;;;;5012244;28;20049;-50
2021/11/27 08:22:34;;;;;;;6.72;3.05;;;5.10;99.90;;;;;;5029504;28;20022;-49
2021/11/27 08:25:01;;;;;;;8.90;2.92;;;5.10;99.90;;;;;;5009013;28;20091;-50
2021/11/27 08:27:29;;;;;;;7.57;2.80;;;5.10;99.90;;;;;;5028651;28;20505;-49
2021/11/27 08:29:56;;;;;;;5.63;2.58;;;5.10;99.90;;;;;;4990841;28;20065;-50
2021/11/27 08:32:23;;;;;;;8.20;2.90;;;5.10;99.90;;;;;;5013109;28;20132;-50
2021/11/27 08:34:49;;;;;;;5.28;2.72;;;5.10;99.90;;;;;;5030495;28;20060;-50
2021/11/27 08:37:14;;;;;;;4.95;3.20;;;5.10;99.90;;;;;;5013456;28;20191;-50
2021/11/27 08:39:40;;;;;;;8.75;3.95;;;5.20;99.90;;;;;;5032337;28;20537;-52
2021/11/27 08:42:07;;;;;;;7.15;2.80;;;5.20;99.90;;;;;;5029697;28;20386;-51
2021/11/27 08:44:32;;;;;;;5.90;2.78;;;5.20;99.90;;;;;;4993837;28;20132;-50
2021/11/27 08:46:58;;;;;;;4.28;2.50;;;5.20;99.90;;;;;;5022706;28;20565;-50
2021/11/27 08:49:23;;;;;;;6.28;2.53;;;5.20;99.90;;;;;;5023014;28;20034;-48
2021/11/27 08:51:49;;;;;;;6.82;2.90;;;5.20;99.90;;;;;;5023145;28;20041;-49
2021/11/27 08:54:15;;;;;;;4.03;2.92;;;5.10;99.90;;;;;;5022619;28;20049;-50
2021/11/27 08:56:41;;;;;;;5.25;3.42;;;5.20;99.90;;;;;;5030057;28;20401;-49
2021/11/27 08:59:07;;;;;;;5.82;3.03;;;5.20;99.90;;;;;;5007790;28;20890;-50
2021/11/27 09:01:33;;;;;;;5.07;3.25;;;5.20;99.90;;;;;;5020007;28;20040;-50
2021/11/27 09:03:59;;;;;;;7.28;3.35;;;5.20;99.90;;;;;;5017560;28;20096;-49
2021/11/27 09:06:25;;;;;;;6.97;3.45;;;5.20;99.90;;;;;;5018173;28;20041;-50
2021/11/27 09:08:53;;;;;;;7.07;3.80;;;5.20;99.90;;;;;;5018794;28;20041;-51
2021/11/27 09:11:20;;;;;;;5.85;4.22;;;5.20;99.90;;;;;;5000245;28;20397;-50
2021/11/27 09:13:46;;;;;;;5.53;3.97;;;5.20;99.90;;;;;;5023213;28;20406;-50
2021/11/27 09:16:13;;;;;;;6.85;3.70;;;5.20;99.90;;;;;;5021458;28;20072;-52
2021/11/27 09:18:38;;;;;;;8.23;4.13;;;5.30;99.90;;;;;;5011224;28;20052;-51
2021/11/27 09:21:04;;;;;;;7.85;4.18;;;5.30;99.90;;;;;;5019558;28;20053;-51
2021/11/27 09:26:58;;;;;;;7.40;4.28;;;5.30;99.90;;;;;;5306053;22;20526;-48
2021/11/27 09:29:24;;;;;;;7.55;4.70;;;5.30;99.90;;;;;;4988241;28;20141;-54
2021/11/27 09:31:49;;;;;;;6.57;4.63;;;5.30;99.90;;;;;;4985395;28;20306;-53
2021/11/27 09:34:16;;;;;;;7.07;4.65;;;5.30;99.90;;;;;;4978938;28;20405;-51
2021/11/27 09:37:39;;;;;;;8.20;4.95;;;5.30;99.90;;;;;;5005551;28;20064;-50
2021/11/27 09:43:12;;;;;;;7.47;4.90;;;5.30;99.90;;;;;;5037928;22;20065;-52
2021/11/27 09:46:20;;;;;;;8.07;4.75;;;5.30;99.90;;;;;;4995399;28;20518;-52
2021/11/27 09:49:57;;;;;;;8.50;4.85;;;5.30;99.90;;;;;;4978059;28;20067;-50
2021/11/27 09:52:24;;;;;;;10.27;4.72;;;5.20;99.90;;;;;;4961907;28;20042;-51
2021/11/27 09:54:51;;;;;;;8.63;4.57;;;5.20;99.90;;;;;;4997159;28;20108;-53
2021/11/27 09:57:17;;;;;;;6.70;4.60;;;5.20;99.90;;;;;;4982412;28;20062;-51
2021/11/27 10:04:18;;;;;;;8.57;5.15;;;5.20;99.90;;;;;;5005264;28;20045;-51
2021/11/27 10:07:31;;;;;;;6.18;4.45;;;5.20;99.90;;;;;;4985513;28;20029;-51
2021/11/27 10:10:55;;;;;;;10.95;4.72;;;5.10;99.90;;;;;;4935887;29;20036;-50
2021/11/27 10:13:32;;;;;;;5.72;4.25;;;5.10;99.90;;;;;;4903078;29;20539;-50
2021/11/27 10:15:57;;;;;;;7.20;4.57;;;5.00;99.90;;;;;;4981733;28;20053;-51
2021/11/27 10:18:25;;;;;;;7.10;4.43;;;5.00;99.90;;;;;;5001237;28;20041;-52
2021/11/27 10:21:13;;;;;;;6.30;4.25;;;5.10;99.90;;;;;;4999336;28;20153;-51
2021/11/27 10:23:39;;;;;;;7.03;4.45;;;5.00;99.90;;;;;;4983211;28;20050;-49
2021/11/27 10:26:06;;;;;;;6.72;4.40;;;5.00;99.90;;;;;;5002828;28;20042;-53
2021/11/27 10:28:32;;;;;;;7.40;4.50;;;5.10;99.90;;;;;;4995758;28;20041;-52
2021/11/27 10:31:05;;;;;;;6.28;4.35;;;5.00;99.90;;;;;;5001010;28;20042;-49
2021/11/27 10:37:30;;;;;;;6.78;4.10;;;5.00;99.90;;;;;;4991141;28;20099;-50
2021/11/27 10:40:05;;;;;;;6.28;3.97;;;5.00;99.90;;;;;;5021670;28;20061;-48
2021/11/27 10:42:33;;;;;;;6.40;3.72;;;4.90;99.90;;;;;;4995291;28;20609;-51
2021/11/27 10:45:20;;;;;;;6.38;3.75;;;5.00;99.90;;;;;;4975254;28;20589;-51
2021/11/27 10:47:47;;;;;;;5.65;3.53;;;5.00;99.90;;;;;;5010460;28;20045;-49
2021/11/27 10:50:19;;;;;;;4.85;3.28;;;5.00;99.90;;;;;;5002956;28;20034;-50
2021/11/27 10:52:46;;;;;;;4.72;2.85;;;5.00;99.90;;;;;;4976398;28;20445;-52
2021/11/27 10:55:18;;;;;;;6.07;3.20;;;5.00;99.90;;;;;;5007007;28;20081;-50
2021/11/27 10:57:45;;;;;;;4.78;2.90;;;4.90;99.90;;;;;;5008262;28;20049;-49
2021/11/27 11:00:25;;;;;;;5.72;3.40;;;5.00;99.90;;;;;;5000137;28;20053;-52
2021/11/27 11:02:51;;;;;;;4.90;2.92;;;5.00;99.90;;;;;;5004250;28;20125;-51
2021/11/27 11:05:17;;;;;;;3.53;2.20;;;5.00;99.90;;;;;;5000864;28;20117;-48
2021/11/27 11:07:58;;;;;;;2.28;2.00;;;5.00;99.90;;;;;;5004718;28;20034;-48
2021/11/27 11:10:27;;;;;;;2.17;1.85;;;5.00;99.90;;;;;;4985631;28;20085;-51
2021/11/27 11:12:56;;;;;;;6.15;2.28;;;5.00;99.90;;;;;;5006253;28;20038;-50
2021/11/27 11:15:23;;;;;;;4.18;2.20;;;4.90;99.90;;;;;;5001359;28;20482;-50
2021/11/27 11:17:53;;;;;;;5.45;2.20;;;5.00;99.90;;;;;;4956404;28;20049;-49
2021/11/27 11:20:24;;;;;;;3.38;2.30;;;5.00;99.90;;;;;;5004867;28;20034;-49
2021/11/27 11:22:58;;;;;;;4.38;2.13;;;5.00;99.90;;;;;;5009762;28;20145;-48
2021/11/27 11:25:25;;;;;;;6.20;2.47;;;4.90;99.90;;;;;;5006890;28;20037;-49
2021/11/27 11:27:50;;;;;;;3.03;2.28;;;5.00;99.90;;;;;;5010125;28;20415;-48
2021/11/27 11:30:21;;;;;;;3.58;2.22;;;4.90;99.90;;;;;;4985315;28;20157;-52
2021/11/27 11:32:47;;;;;;;3.25;2.08;;;4.90;99.90;;;;;;4984406;28;20497;-48
2021/11/27 11:35:15;;;;;;;3.05;1.95;;;5.00;99.90;;;;;;4991760;28;20081;-48
2021/11/27 11:37:40;;;;;;;3.03;2.03;;;4.90;99.90;;;;;;4973604;28;20429;-51
2021/11/27 11:40:35;;;;;;;2.58;1.75;;;5.00;99.90;;;;;;5018035;28;20073;-52
2021/11/27 11:43:01;;;;;;;4.07;1.88;;;4.90;99.90;;;;;;5009213;28;20034;-52
2021/11/27 11:45:27;;;;;;;3.95;2.03;;;4.90;99.90;;;;;;5016510;28;20042;-53
2021/11/27 12:02:28;;;;;;;2.85;1.90;;;4.70;99.90;;;;;;5718731;22;20057;-49
2021/11/27 12:05:11;;;;;;;3.50;2.20;;;4.80;99.90;;;;;;5020373;28;20033;-51
2021/11/27 12:07:43;;;;;;;4.05;2.20;;;4.80;99.90;;;;;;5021494;28;20045;-50
2021/11/27 12:10:21;;;;;;;4.53;2.53;;;4.70;99.90;;;;;;4983605;28;20041;-50
2021/11/27 12:13:05;;;;;;;3.30;1.92;;;4.80;99.90;;;;;;5012313;28;20069;-50
2021/11/27 12:15:47;;;;;;;3.28;2.22;;;4.70;99.90;;;;;;4999933;28;20128;-49
2021/11/27 12:18:16;;;;;;;3.27;2.17;;;4.70;99.90;;;;;;5004467;28;20038;-49
2021/11/27 12:23:51;;;;;;;3.05;2.22;;;4.80;99.90;;;;;;5002685;28;20054;-49
2021/11/27 12:27:11;;;;;;;4.45;2.63;;;4.80;99.90;;;;;;4994183;28;20029;-54
2021/11/27 12:35:26;;;;;;;4.95;2.53;;;4.70;99.90;;;;;;5008986;28;20060;-83
2021/11/27 12:38:11;;;;;;;3.35;2.30;;;4.70;99.90;;;;;;5000278;28;20113;-82
2021/11/27 12:40:48;;;;;;;4.75;2.70;;;4.70;99.90;;;;;;4985011;28;20042;-82
2021/11/27 12:43:15;;;;;;;3.92;2.20;;;4.70;99.90;;;;;;4990023;28;20042;-81
2021/11/27 12:45:44;;;;;;;3.92;2.40;;;4.70;99.90;;;;;;4991800;28;20105;-83
2021/11/27 12:48:36;;;;;;;4.40;2.55;;;4.70;99.90;;;;;;4986195;28;20052;-84
2021/11/27 12:51:17;;;;;;;6.68;3.00;;;4.70;99.90;;;;;;4985575;28;20049;-81
2021/11/27 12:53:58;;;;;;;3.80;2.30;;;4.70;99.90;;;;;;4991862;28;20399;-83
2021/11/27 12:56:24;;;;;;;6.50;2.75;;;4.70;99.90;;;;;;4977844;28;20075;-89
2021/11/27 12:58:49;;;;;;;4.35;2.65;;;4.70;99.90;;;;;;4967761;28;20495;-89
2021/11/27 13:01:32;;;;;;;5.93;3.00;;;4.70;99.90;;;;;;4977640;28;20053;-88
2021/11/27 13:04:02;;;;;;;5.63;2.85;;;4.80;99.90;;;;;;4971590;28;20046;-88
2021/11/27 13:06:28;;;;;;;5.20;2.72;;;4.80;99.90;;;;;;4986950;28;20037;-90
2021/11/27 13:08:53;;;;;;;5.07;3.13;;;4.90;99.90;;;;;;4971481;28;20049;-89
2021/11/27 13:11:23;;;;;;;5.72;3.50;;;4.80;99.90;;;;;;4982883;28;20117;-90
2021/11/27 13:13:51;;;;;;;6.05;3.65;;;4.90;99.90;;;;;;4976260;28;20690;-86
2021/11/27 13:16:24;;;;;;;6.03;3.58;;;4.80;99.90;;;;;;4987915;28;20483;-89
2021/11/27 13:18:53;;;;;;;5.60;3.78;;;4.90;99.90;;;;;;4989054;28;20048;-90
2021/11/27 13:21:24;;;;;;;7.13;3.20;;;4.90;99.90;;;;;;4989968;28;20037;-89
2021/11/27 13:23:49;;;;;;;5.50;3.80;;;4.90;99.90;;;;;;4963339;28;20052;-89
2021/11/27 13:26:18;;;;;;;5.15;3.78;;;4.90;99.90;;;;;;4972549;28;20037;-88
2021/11/27 13:28:50;;;;;;;7.28;3.88;;;4.90;99.90;;;;;;4980749;28;20103;-90
2021/11/27 13:31:39;;;;;;;8.57;4.25;;;4.90;99.90;;;;;;4966497;28;20116;-90
2021/11/27 13:34:13;;;;;;;7.35;4.40;;;4.90;99.90;;;;;;4990197;28;20041;-88